Breton, Canada
Current Conditions -  °F | °C
As of 7:00 AM on Sunday 23 Nov 2014 (Local Time) from CWSE Reporting Station
Clear Clear  
Wind Chill:   Ceiling: Unl
Heat Index: 10°   Visibility: 15mi
Dew Point:   Wind: 5mph
Humidity: 89%   Direction: 200°SSW
Pressure: 29.75"   Gusts: NA
Location:  53.12°N, 114.48°W
Report Text: CWSE 231400Z 20004KT 15SM CLR M12/M14 A2975 RMK SLP129 FROIN T11221137 WSI/SWOB
Loading
Personal Weather Stations






























Interactive Weather Map New forecast layout! Learn more

10-Day Weather Forecast

Advertisements
Track Severe Weather on mobile